Time;durP1;ratioP1;P1;durP2;ratioP2;P2;SDS_P1;SDS_P2;PMS_P1;PMS_P2;Temp;Humidity;BMP_temperature;BMP_pressure;BME280_temperature;BME280_humidity;BME280_pressure;Samples;Min_cycle;Max_cycle;Signal;HPM_P1;HPM_P2
2024/03/22 00:01:52;;;;;;;;;31.50;29.00;;;;;17.20;65.06;101986.13;5080072;27;46527;-72
2024/03/22 00:04:18;;;;;;;;;35.25;31.25;;;;;17.21;64.54;101990.59;5078392;28;45400;-72
2024/03/22 00:06:45;;;;;;;;;29.00;28.00;;;;;17.22;64.53;101980.66;5079311;28;45542;-72
2024/03/22 00:09:10;;;;;;;;;28.25;26.00;;;;;17.21;64.82;101993.28;5079720;28;45753;-72
2024/03/22 00:11:37;;;;;;;;;31.50;27.00;;;;;17.15;64.60;101982.72;5079677;27;46000;-72
2024/03/22 00:14:02;;;;;;;;;32.00;30.75;;;;;17.21;64.80;101989.72;5079352;27;45375;-72
2024/03/22 00:16:28;;;;;;;;;31.00;29.00;;;;;17.21;64.99;102000.50;5078852;27;45290;-72
2024/03/22 00:18:53;;;;;;;;;27.25;26.25;;;;;17.19;64.90;101991.56;5085407;27;45616;-72
2024/03/22 00:21:19;;;;;;;;;31.25;30.00;;;;;17.12;65.01;101981.97;5079812;27;46004;-72
2024/03/22 00:23:45;;;;;;;;;29.50;27.50;;;;;17.10;64.85;101982.03;5078583;27;64008;-72
2024/03/22 00:26:10;;;;;;;;;29.50;26.75;;;;;17.12;65.11;101984.66;5079467;28;45314;-71
2024/03/22 00:28:35;;;;;;;;;24.75;23.75;;;;;17.09;65.16;101977.59;5078841;27;45386;-72
2024/03/22 00:31:01;;;;;;;;;31.50;30.00;;;;;17.09;64.85;101977.59;5079227;28;51428;-72
2024/03/22 00:33:26;;;;;;;;;24.50;24.25;;;;;17.08;65.21;101983.91;5079089;28;46140;-72
2024/03/22 00:35:51;;;;;;;;;32.75;30.00;;;;;17.03;64.83;101970.59;5078915;27;60394;-72
2024/03/22 00:38:17;;;;;;;;;29.75;28.50;;;;;17.06;65.33;101982.22;5076656;28;45514;-72
2024/03/22 00:40:42;;;;;;;;;28.25;26.25;;;;;17.03;65.13;101965.22;5078625;27;45296;-72
2024/03/22 00:43:07;;;;;;;;;25.75;25.50;;;;;17.02;65.13;101959.88;5078209;28;67328;-71
2024/03/22 00:45:32;;;;;;;;;28.75;27.00;;;;;16.99;65.45;101955.50;5078971;28;53917;-72
2024/03/22 00:47:58;;;;;;;;;26.00;25.50;;;;;17.00;65.55;101950.97;5076537;28;50798;-72
2024/03/22 00:50:23;;;;;;;;;30.50;29.75;;;;;16.93;65.43;101934.16;5078686;28;53831;-72
2024/03/22 00:52:51;;;;;;;;;31.75;29.00;;;;;16.98;65.61;101940.25;5079142;28;49264;-71
2024/03/22 00:55:16;;;;;;;;;35.50;31.75;;;;;16.95;65.60;101937.66;5079171;27;45529;-72
2024/03/22 00:57:42;;;;;;;;;30.75;29.00;;;;;16.96;65.87;101952.94;5078468;27;45417;-72
2024/03/22 01:00:08;;;;;;;;;34.00;31.75;;;;;16.95;65.93;101945.75;5079051;27;45407;-72
2024/03/22 01:02:33;;;;;;;;;35.75;30.00;;;;;16.93;65.93;101944.09;5077556;27;45440;-72
2024/03/22 01:04:58;;;;;;;;;34.25;32.25;;;;;16.89;65.66;101939.72;5072528;27;45492;-72
2024/03/22 01:07:24;;;;;;;;;36.00;31.25;;;;;16.90;65.64;101947.75;5077499;28;64485;-72
2024/03/22 01:09:49;;;;;;;;;41.00;35.25;;;;;16.89;65.72;101943.34;5078779;27;45263;-71
2024/03/22 01:12:14;;;;;;;;;35.00;31.50;;;;;16.90;66.15;101952.28;5078271;28;59640;-72
2024/03/22 01:14:39;;;;;;;;;38.75;34.50;;;;;16.84;65.86;101938.13;5076874;28;58379;-71
2024/03/22 01:17:05;;;;;;;;;37.25;32.50;;;;;16.81;66.17;101929.25;5077167;28;63810;-72
2024/03/22 01:19:30;;;;;;;;;33.25;31.75;;;;;16.80;65.92;101927.47;5078611;28;46285;-72
2024/03/22 01:21:55;;;;;;;;;34.00;30.75;;;;;16.75;66.41;101929.47;5082420;27;61745;-72
2024/03/22 01:24:21;;;;;;;;;38.25;33.25;;;;;16.79;66.14;101928.41;5080187;27;45243;-71
2024/03/22 01:26:46;;;;;;;;;33.50;30.25;;;;;16.76;66.44;101932.09;5077468;28;60230;-72
2024/03/22 01:29:13;;;;;;;;;33.00;30.50;;;;;16.76;66.62;101936.63;5078102;28;61394;-71
2024/03/22 01:31:38;;;;;;;;;41.00;34.00;;;;;16.67;66.58;101927.97;5078777;28;45587;-71
2024/03/22 01:34:05;;;;;;;;;36.50;33.00;;;;;16.67;66.46;101930.66;5076700;28;47228;-72
2024/03/22 01:36:30;;;;;;;;;31.50;30.00;;;;;16.66;66.55;101933.41;5078744;27;45427;-72
2024/03/22 01:38:55;;;;;;;;;35.25;31.00;;;;;16.64;66.73;101927.22;5077390;27;54672;-72
2024/03/22 01:41:20;;;;;;;;;45.00;36.50;;;;;16.57;66.65;101914.88;5078153;28;58102;-71
2024/03/22 01:43:46;;;;;;;;;38.00;33.00;;;;;16.60;66.99;101920.16;5077947;28;52195;-71
2024/03/22 01:46:11;;;;;;;;;42.00;35.75;;;;;16.59;67.07;101924.69;5078500;28;45385;-72
2024/03/22 01:48:36;;;;;;;;;43.00;36.00;;;;;16.59;67.02;101913.00;5077420;27;45362;-71
2024/03/22 01:51:04;;;;;;;;;40.75;35.25;;;;;16.54;66.84;101904.22;5077574;28;59909;-71
2024/03/22 01:53:29;;;;;;;;;37.50;33.00;;;;;16.53;67.23;101906.03;5078360;27;45583;-72
2024/03/22 01:55:55;;;;;;;;;38.75;35.00;;;;;16.49;67.02;101899.91;5078562;28;45314;-71
2024/03/22 01:58:21;;;;;;;;;32.75;30.25;;;;;16.49;67.37;101902.59;5077698;27;45415;-71
2024/03/22 02:00:47;;;;;;;;;43.50;35.75;;;;;16.42;67.33;101901.09;5078186;27;45595;-72
2024/03/22 02:03:12;;;;;;;;;29.75;27.00;;;;;16.42;67.44;101897.50;5077914;27;45309;-72
2024/03/22 02:05:37;;;;;;;;;31.00;30.00;;;;;16.36;67.23;101892.34;5072455;27;45463;-71
2024/03/22 02:08:03;;;;;;;;;44.00;35.00;;;;;16.38;67.42;101901.25;5076786;28;59483;-71
2024/03/22 02:10:28;;;;;;;;;37.50;32.75;;;;;16.34;67.51;101900.50;5077656;27;45479;-71
2024/03/22 02:12:54;;;;;;;;;39.25;34.75;;;;;16.33;67.72;101892.47;5079072;27;45464;-72
2024/03/22 02:15:19;;;;;;;;;43.75;36.75;;;;;16.21;67.78;101883.03;5081522;27;45496;-71
2024/03/22 02:17:44;;;;;;;;;47.00;39.00;;;;;16.26;67.74;101892.69;5080218;28;48046;-71
2024/03/22 02:20:11;;;;;;;;;39.50;32.25;;;;;16.26;67.86;101892.69;5081345;28;52541;-71
2024/03/22 02:22:37;;;;;;;;;40.50;34.25;;;;;16.20;67.94;101890.22;5081034;27;45370;-71
2024/03/22 02:25:03;;;;;;;;;36.75;32.75;;;;;16.17;67.91;101886.78;5081309;27;45380;-71
2024/03/22 02:27:28;;;;;;;;;42.25;35.00;;;;;16.15;68.02;101886.81;5080506;28;46137;-71
2024/03/22 02:29:53;;;;;;;;;38.50;33.00;;;;;16.16;68.23;101902.06;5080934;28;58012;-71
2024/03/22 02:32:19;;;;;;;;;36.00;33.25;;;;;16.13;68.25;101895.91;5081291;28;45424;-71
2024/03/22 02:34:44;;;;;;;;;39.75;35.25;;;;;16.11;68.36;101893.28;5080394;28;64226;-71
2024/03/22 02:37:09;;;;;;;;;47.75;40.00;;;;;16.10;68.29;101887.03;5079268;28;58955;-71
2024/03/22 02:39:35;;;;;;;;;43.50;35.50;;;;;16.03;68.31;101871.13;5081407;27;45259;-71
2024/03/22 02:42:00;;;;;;;;;39.00;34.00;;;;;16.04;68.52;101871.09;5080422;28;46581;-71
2024/03/22 02:44:25;;;;;;;;;42.75;36.25;;;;;16.01;68.40;101860.41;5080463;27;45453;-71
2024/03/22 02:46:50;;;;;;;;;43.00;35.50;;;;;16.03;68.34;101861.22;5079977;28;61280;-72
2024/03/22 02:49:16;;;;;;;;;44.50;36.75;;;;;16.02;68.62;101853.22;5080695;27;45374;-71
2024/03/22 02:51:41;;;;;;;;;43.25;37.50;;;;;16.00;68.41;101852.41;5080950;27;45874;-71
2024/03/22 02:54:06;;;;;;;;;45.00;38.25;;;;;16.01;68.22;101852.34;5079430;28;61168;-71
2024/03/22 02:56:32;;;;;;;;;44.25;36.00;;;;;15.99;68.24;101851.53;5079941;27;65207;-71
2024/03/22 02:58:57;;;;;;;;;34.25;32.75;;;;;16.00;68.31;101853.25;5080265;28;67262;-71
2024/03/22 03:01:22;;;;;;;;;45.50;36.75;;;;;15.97;68.22;101842.63;5080339;28;55013;-71
2024/03/22 03:03:48;;;;;;;;;41.50;35.00;;;;;15.92;68.18;101836.50;5079448;27;45252;-71
2024/03/22 03:06:14;;;;;;;;;40.25;35.75;;;;;15.94;67.99;101842.75;5077061;28;46188;-71
2024/03/22 03:08:39;;;;;;;;;35.75;33.00;;;;;15.93;68.15;101839.16;5070114;28;45415;-71
2024/03/22 03:11:05;;;;;;;;;40.50;36.00;;;;;15.93;68.23;101839.16;5080943;27;45385;-71
2024/03/22 03:13:30;;;;;;;;;37.75;32.25;;;;;15.87;68.13;101828.63;5079872;28;50237;-71
2024/03/22 03:15:55;;;;;;;;;34.50;32.50;;;;;15.92;68.16;101840.09;5079671;28;59780;-71
2024/03/22 03:18:20;;;;;;;;;39.25;35.50;;;;;15.92;68.09;101839.19;5079991;28;56834;-71
2024/03/22 03:20:46;;;;;;;;;37.75;32.25;;;;;15.89;68.21;101837.53;5079184;28;45525;-71
2024/03/22 03:23:11;;;;;;;;;39.75;36.00;;;;;15.87;68.18;101827.72;5084932;27;57026;-71
2024/03/22 03:25:36;;;;;;;;;41.00;35.75;;;;;15.83;68.23;101828.78;5078875;27;47167;-71
2024/03/22 03:28:02;;;;;;;;;45.50;37.00;;;;;15.82;68.42;101827.94;5080228;28;49158;-71
2024/03/22 03:30:27;;;;;;;;;43.25;35.00;;;;;15.82;68.42;101827.94;5080440;27;45427;-71
2024/03/22 03:32:52;;;;;;;;;41.00;36.25;;;;;15.80;68.52;101820.81;5079767;28;59971;-71
2024/03/22 03:35:18;;;;;;;;;36.25;34.00;;;;;15.71;68.46;101806.72;5079067;28;55974;-71
2024/03/22 03:37:43;;;;;;;;;36.75;31.75;;;;;15.74;68.62;101816.53;5080294;27;45412;-71
2024/03/22 03:40:08;;;;;;;;;34.50;31.00;;;;;15.70;68.65;101806.78;5079863;28;59103;-71
2024/03/22 03:42:34;;;;;;;;;37.25;33.25;;;;;15.68;68.75;101814.06;5080506;28;45287;-71
2024/03/22 03:44:59;;;;;;;;;38.50;34.00;;;;;15.62;68.71;101804.41;5079308;27;45984;-71
2024/03/22 03:47:24;;;;;;;;;37.25;33.00;;;;;15.63;68.75;101803.44;5079062;27;60274;-71
2024/03/22 03:49:50;;;;;;;;;33.00;30.25;;;;;15.59;68.68;101800.94;5079671;27;51042;-71
2024/03/22 03:52:15;;;;;;;;;35.75;32.50;;;;;15.60;68.63;101800.84;5080401;27;45326;-71
2024/03/22 03:54:40;;;;;;;;;33.25;30.00;;;;;15.60;68.82;101810.75;5079289;27;45362;-71
2024/03/22 03:57:05;;;;;;;;;37.75;33.75;;;;;15.57;68.68;101804.56;5078966;28;61985;-71
2024/03/22 03:59:31;;;;;;;;;35.00;31.00;;;;;15.45;68.86;101780.81;5079777;28;48611;-71
2024/03/22 04:01:56;;;;;;;;;36.50;32.75;;;;;15.47;68.68;101783.41;5079799;28;50134;-71
2024/03/22 04:04:22;;;;;;;;;36.50;33.00;;;;;15.50;68.76;101784.19;5077179;28;48875;-71
2024/03/22 04:06:47;;;;;;;;;38.00;33.00;;;;;15.48;68.68;101777.97;5079906;27;46172;-71
2024/03/22 04:09:12;;;;;;;;;31.00;30.25;;;;;15.46;68.55;101779.84;5079856;27;45280;-71
2024/03/22 04:11:38;;;;;;;;;37.25;32.75;;;;;15.43;68.64;101773.69;5079288;28;63573;-71
2024/03/22 04:14:05;;;;;;;;;36.00;32.00;;;;;15.42;68.65;101772.84;5078798;28;46095;-71
2024/03/22 04:16:30;;;;;;;;;29.75;27.75;;;;;15.39;68.94;101770.25;5079662;28;45573;-71
2024/03/22 04:18:56;;;;;;;;;31.50;30.75;;;;;15.40;69.02;101772.00;5079639;27;45466;-71
2024/03/22 04:21:21;;;;;;;;;34.00;31.50;;;;;15.37;68.86;101775.69;5079458;28;53099;-71
2024/03/22 04:23:46;;;;;;;;;31.75;30.50;;;;;15.34;69.10;101766.84;5079734;27;48687;-71
2024/03/22 04:26:12;;;;;;;;;36.75;32.50;;;;;15.34;69.26;101766.84;5078056;28;62583;-71
2024/03/22 04:28:37;;;;;;;;;33.25;31.25;;;;;15.32;69.36;101769.59;5079737;27;45307;-71
2024/03/22 04:31:08;;;;;;;;;39.00;32.00;;;;;15.29;69.13;101768.84;5079525;28;45527;-71
2024/03/22 04:33:34;;;;;;;;;30.00;29.75;;;;;15.28;69.02;101770.63;5078188;27;46315;-71
2024/03/22 04:36:00;;;;;;;;;40.00;34.50;;;;;15.25;69.30;101770.75;5079063;27;45433;-71
2024/03/22 04:38:27;;;;;;;;;35.75;33.50;;;;;15.21;69.49;101762.84;5079163;27;45318;-71
2024/03/22 04:40:53;;;;;;;;;38.00;33.25;;;;;15.17;69.77;101765.63;5079704;28;45412;-71
2024/03/22 04:43:18;;;;;;;;;34.50;33.00;;;;;15.19;69.88;101773.66;5078415;27;47180;-71
2024/03/22 04:45:44;;;;;;;;;35.75;32.75;;;;;15.13;69.69;101758.59;5079106;28;45443;-71
2024/03/22 04:48:10;;;;;;;;;34.25;32.75;;;;;15.10;69.86;101761.41;5077785;28;45443;-71
2024/03/22 04:50:35;;;;;;;;;32.75;31.00;;;;;15.08;69.80;101757.88;5079408;27;45338;-71
2024/03/22 04:53:01;;;;;;;;;34.00;31.50;;;;;15.09;69.95;101775.78;5078256;27;45465;-70
2024/03/22 04:55:27;;;;;;;;;34.00;30.50;;;;;15.04;69.85;101758.94;5079209;27;45433;-71
2024/03/22 04:57:52;;;;;;;;;37.50;31.00;;;;;15.06;70.04;101761.56;5078673;28;57056;-71
2024/03/22 05:00:18;;;;;;;;;38.50;33.75;;;;;15.05;69.87;101774.16;5079352;27;45317;-71
2024/03/22 05:02:44;;;;;;;;;33.50;30.50;;;;;15.00;70.01;101766.22;5078116;27;46179;-71
2024/03/22 05:05:09;;;;;;;;;29.75;28.75;;;;;14.98;69.90;101764.50;5076713;27;45933;-71
2024/03/22 05:07:35;;;;;;;;;30.75;30.50;;;;;14.95;70.08;101757.44;5078221;27;45468;-71
2024/03/22 05:10:03;;;;;;;;;31.00;30.50;;;;;14.93;70.40;101753.03;5079147;27;45599;-71
2024/03/22 05:12:29;;;;;;;;;37.50;32.00;;;;;14.94;70.17;101755.69;5078168;27;46296;-71
2024/03/22 05:14:54;;;;;;;;;33.75;30.25;;;;;14.92;70.18;101759.38;5078703;27;45555;-71
2024/03/22 05:17:19;;;;;;;;;27.25;27.25;;;;;14.87;70.48;101745.19;5078602;27;45537;-71
2024/03/22 05:19:45;;;;;;;;;36.75;32.00;;;;;14.88;70.50;101757.69;5078826;28;52357;-71
2024/03/22 05:22:10;;;;;;;;;29.50;26.75;;;;;14.86;70.61;101754.19;5077554;28;55265;-71
2024/03/22 05:24:35;;;;;;;;;37.00;31.00;;;;;14.77;70.56;101750.88;5078619;27;45432;-71
2024/03/22 05:27:01;;;;;;;;;31.25;29.00;;;;;14.80;70.48;101763.31;5078761;27;45885;-70
2024/03/22 05:29:26;;;;;;;;;34.50;32.50;;;;;14.77;70.72;101758.94;5078406;28;55744;-71
2024/03/22 05:31:52;;;;;;;;;33.50;31.00;;;;;14.76;70.64;101765.25;5078076;28;62668;-71
2024/03/22 05:34:18;;;;;;;;;32.50;30.75;;;;;14.74;70.84;101752.81;5077826;28;45330;-71
2024/03/22 05:36:45;;;;;;;;;34.75;32.25;;;;;14.70;70.52;101749.34;5078644;28;45487;-71
2024/03/22 05:39:13;;;;;;;;;31.25;30.25;;;;;14.68;71.00;101743.13;5078740;28;45495;-71
2024/03/22 05:41:38;;;;;;;;;34.00;31.25;;;;;14.68;70.92;101745.81;5078582;27;46205;-71
2024/03/22 05:44:04;;;;;;;;;34.00;32.50;;;;;14.64;71.18;101736.97;5077806;28;45431;-71
2024/03/22 05:46:30;;;;;;;;;35.75;31.00;;;;;14.64;70.95;101742.34;5078344;27;45473;-71
2024/03/22 05:48:57;;;;;;;;;33.50;31.75;;;;;14.62;71.04;101748.72;5080737;27;45318;-71
2024/03/22 05:51:22;;;;;;;;;40.25;32.75;;;;;14.61;71.08;101738.88;5081804;27;45309;-71
2024/03/22 05:53:48;;;;;;;;;33.25;30.75;;;;;14.58;71.09;101739.84;5081423;27;45251;-71
2024/03/22 05:56:14;;;;;;;;;36.25;30.50;;;;;14.52;71.03;101736.50;5082019;27;45412;-71
2024/03/22 05:58:39;;;;;;;;;31.25;31.25;;;;;14.49;71.14;101732.06;5082115;27;45540;-70
2024/03/22 06:01:04;;;;;;;;;35.75;31.50;;;;;14.52;71.36;101739.19;5080176;28;45461;-71
2024/03/22 06:03:30;;;;;;;;;32.00;31.50;;;;;14.43;71.27;101732.28;5073843;28;45321;-71
2024/03/22 06:05:59;;;;;;;;;42.25;35.00;;;;;14.46;71.45;101741.09;5075771;27;45463;-71
2024/03/22 06:08:25;;;;;;;;;36.50;32.50;;;;;14.43;71.32;101733.16;5068409;28;45482;-71
2024/03/22 06:10:50;;;;;;;;;28.75;28.75;;;;;14.42;71.19;101742.16;5081612;27;45364;-71
2024/03/22 06:13:16;;;;;;;;;41.00;32.75;;;;;14.42;71.55;101736.78;5080886;27;45312;-71
2024/03/22 06:15:45;;;;;;;;;31.00;30.00;;;;;14.42;71.28;101741.28;5080634;28;52717;-70
2024/03/22 06:18:11;;;;;;;;;36.25;29.50;;;;;14.39;71.35;101747.63;5081505;28;45372;-71
2024/03/22 06:20:36;;;;;;;;;36.50;32.25;;;;;14.38;71.44;101750.34;5080945;27;46294;-70
2024/03/22 06:23:01;;;;;;;;;35.25;31.75;;;;;14.36;71.60;101739.66;5085187;27;58577;-71
2024/03/22 06:25:27;;;;;;;;;36.75;32.00;;;;;14.35;71.47;101745.06;5080918;28;52207;-70
2024/03/22 06:27:52;;;;;;;;;40.00;34.50;;;;;14.34;71.84;101748.72;5081336;27;48225;-71
2024/03/22 06:30:17;;;;;;;;;35.75;31.25;;;;;14.32;71.68;101739.81;5080233;28;71642;-71
2024/03/22 06:32:42;;;;;;;;;38.00;31.75;;;;;14.30;71.98;101747.94;5079876;28;63720;-70
2024/03/22 06:35:08;;;;;;;;;36.25;33.00;;;;;14.30;71.83;101749.72;5080806;28;51308;-70
2024/03/22 06:37:33;;;;;;;;;30.75;29.25;;;;;14.23;72.00;101741.88;5081313;28;45412;-70
2024/03/22 06:39:58;;;;;;;;;40.00;33.50;;;;;14.23;71.80;101738.28;5080628;28;60993;-70
2024/03/22 06:42:24;;;;;;;;;37.25;33.75;;;;;14.26;72.11;101732.81;5079787;28;69043;-70
2024/03/22 06:44:49;;;;;;;;;34.25;32.25;;;;;14.25;72.41;101736.47;5080932;27;45457;-71
2024/03/22 06:47:14;;;;;;;;;37.50;33.00;;;;;14.28;72.26;101733.66;5081160;27;45509;-70
2024/03/22 06:49:40;;;;;;;;;36.25;31.50;;;;;14.26;72.52;101733.69;5080758;27;46743;-75
2024/03/22 06:52:06;;;;;;;;;39.50;36.50;;;;;14.25;72.61;101731.09;5078689;28;70395;-79
2024/03/22 06:54:31;;;;;;;;;40.75;34.50;;;;;14.22;72.59;101728.50;5078581;27;45690;-75
2024/03/22 06:56:56;;;;;;;;;38.00;34.00;;;;;14.23;72.82;101727.53;5082798;27;45672;-75
2024/03/22 06:59:22;;;;;;;;;44.75;38.50;;;;;14.29;73.12;101742.59;5078120;28;46228;-78
2024/03/22 07:01:47;;;;;;;;;40.25;33.75;;;;;14.27;73.13;101739.97;5080629;28;45292;-79
2024/03/22 07:04:12;;;;;;;;;33.00;29.75;;;;;14.21;73.28;101724.03;5078422;28;59568;-79
2024/03/22 07:06:37;;;;;;;;;31.50;29.75;;;;;14.23;73.24;101719.50;5074557;27;51654;-76
2024/03/22 07:09:03;;;;;;;;;41.25;36.25;;;;;14.30;73.07;101723.75;5072294;28;61385;-79
2024/03/22 07:11:28;;;;;;;;;41.25;36.75;;;;;14.24;73.33;101718.56;5079025;28;45373;-79
2024/03/22 07:13:54;;;;;;;;;37.75;34.00;;;;;14.32;73.61;101727.25;5080581;27;45424;-79
2024/03/22 07:16:19;;;;;;;;;35.75;31.25;;;;;14.29;73.35;101722.00;5078338;27;60211;-78
2024/03/22 07:18:44;;;;;;;;;39.00;34.25;;;;;14.35;73.62;101729.84;5080964;27;63791;-78
2024/03/22 07:21:10;;;;;;;;;41.25;34.75;;;;;14.31;73.86;101713.88;5075216;28;45497;-78
2024/03/22 07:23:36;;;;;;;;;40.00;35.00;;;;;14.30;73.65;101713.00;5082203;27;59162;-77
2024/03/22 07:26:01;;;;;;;;;40.50;35.00;;;;;14.41;73.88;101724.25;5070118;28;45460;-77
2024/03/22 07:28:27;;;;;;;;;44.75;37.75;;;;;14.38;73.98;101710.97;5076916;28;59624;-77
2024/03/22 07:30:52;;;;;;;;;43.50;37.50;;;;;14.46;73.67;101722.31;5062443;28;45605;-77
2024/03/22 07:33:17;;;;;;;;;42.50;37.50;;;;;14.50;73.83;101711.47;5075524;28;45625;-77
2024/03/22 07:35:44;;;;;;;;;43.75;35.50;;;;;14.52;73.83;101715.00;5074302;27;45678;-75
2024/03/22 07:38:10;;;;;;;;;43.75;37.25;;;;;14.50;73.94;101709.66;5075353;27;45545;-73
2024/03/22 07:40:35;;;;;;;;;44.50;36.25;;;;;14.56;73.81;101709.44;5075687;27;45524;-74
2024/03/22 07:43:05;;;;;;;;;42.00;37.25;;;;;14.62;74.01;101716.47;5079891;27;45424;-78
2024/03/22 07:45:32;;;;;;;;;45.00;37.00;;;;;14.68;74.09;101713.56;5072067;27;45388;-78
2024/03/22 07:47:57;;;;;;;;;41.00;34.25;;;;;14.71;73.98;101710.78;5079371;27;46525;-78
2024/03/22 07:50:22;;;;;;;;;42.00;37.25;;;;;14.72;74.02;101704.47;5077473;28;70158;-76
2024/03/22 07:52:47;;;;;;;;;39.25;34.00;;;;;14.79;74.09;101702.44;5073236;27;45408;-80
2024/03/22 07:55:13;;;;;;;;;42.75;35.25;;;;;14.83;74.41;101704.09;5075362;27;45841;-74
2024/03/22 07:57:38;;;;;;;;;47.00;38.00;;;;;14.88;74.13;101709.31;5075439;28;45922;-74
2024/03/22 08:00:04;;;;;;;;;40.00;35.50;;;;;14.87;73.99;101695.00;5071588;28;48568;-74
2024/03/22 08:02:29;;;;;;;;;44.50;38.00;;;;;14.95;73.67;101701.00;5075645;27;45649;-74
2024/03/22 08:04:54;;;;;;;;;32.75;31.75;;;;;14.99;73.85;101694.56;5065934;27;53643;-75
2024/03/22 08:07:20;;;;;;;;;39.50;33.25;;;;;14.99;73.68;101686.50;5089706;27;55864;-75
2024/03/22 08:09:45;;;;;;;;;34.25;28.50;;;;;15.09;73.46;101695.09;5076852;27;57326;-74
2024/03/22 08:12:10;;;;;;;;;37.25;34.00;;;;;15.11;73.47;101684.28;5075454;27;45357;-74
2024/03/22 08:14:36;;;;;;;;;38.50;34.25;;;;;15.17;73.51;101690.34;5077711;27;45334;-74
2024/03/22 08:17:01;;;;;;;;;42.75;35.50;;;;;15.18;73.25;101685.81;5076962;27;46979;-74
2024/03/22 08:19:27;;;;;;;;;38.25;33.00;;;;;15.27;73.42;101696.25;5077463;27;45473;-74
2024/03/22 08:21:53;;;;;;;;;45.00;38.00;;;;;15.28;73.22;101697.13;5079070;27;45353;-74
2024/03/22 08:24:18;;;;;;;;;39.25;35.00;;;;;15.28;73.33;101694.44;5080062;27;45320;-74
2024/03/22 08:26:46;;;;;;;;;45.25;37.00;;;;;15.27;73.49;101688.19;5079751;27;55766;-74
2024/03/22 08:29:12;;;;;;;;;42.25;36.50;;;;;15.33;73.13;101687.06;5078688;27;45391;-72
2024/03/22 08:31:38;;;;;;;;;44.75;38.25;;;;;15.33;73.28;101677.19;5078657;27;45456;-78
2024/03/22 08:34:05;;;;;;;;;45.75;37.00;;;;;15.39;73.37;101689.53;5077002;28;60361;-75
2024/03/22 08:36:30;;;;;;;;;40.25;35.75;;;;;15.43;73.09;101675.03;5075772;27;46249;-75
2024/03/22 08:38:56;;;;;;;;;40.75;35.00;;;;;15.50;72.83;101681.94;5077723;28;45588;-75
2024/03/22 08:41:21;;;;;;;;;37.50;33.25;;;;;15.48;72.66;101670.34;5078138;28;49751;-74
2024/03/22 08:43:46;;;;;;;;;43.00;36.00;;;;;15.45;72.27;101654.34;5077654;28;46585;-75
2024/03/22 08:46:12;;;;;;;;;42.50;36.00;;;;;15.60;72.01;101670.81;5076379;27;46953;-74
2024/03/22 08:48:37;;;;;;;;;35.00;31.25;;;;;15.69;72.01;101671.34;5080398;27;45369;-74
2024/03/22 08:51:03;;;;;;;;;39.75;34.00;;;;;15.73;72.40;101666.72;5077958;27;45494;-74
2024/03/22 08:53:28;;;;;;;;;39.25;33.25;;;;;15.77;72.32;101665.69;5077881;27;45342;-75
2024/03/22 08:55:53;;;;;;;;;44.50;37.00;;;;;15.82;72.27;101655.63;5074089;28;46054;-74
2024/03/22 08:58:19;;;;;;;;;46.25;38.25;;;;;15.87;72.38;101660.81;5077932;27;45397;-74
2024/03/22 09:00:44;;;;;;;;;43.25;35.75;;;;;15.89;72.02;101656.25;5077671;27;45466;-75
2024/03/22 09:03:10;;;;;;;;;42.50;37.25;;;;;15.95;72.20;101658.69;5078185;27;45462;-76
2024/03/22 09:05:35;;;;;;;;;44.75;36.75;;;;;15.99;72.04;101654.94;5077025;28;46498;-77
2024/03/22 09:08:03;;;;;;;;;40.25;33.75;;;;;16.02;71.89;101649.44;5076722;27;45556;-72
2024/03/22 09:10:28;;;;;;;;;41.75;33.75;;;;;16.07;71.92;101644.75;5076744;28;45381;-72
2024/03/22 09:12:55;;;;;;;;;39.00;33.75;;;;;16.11;71.69;101640.09;5078121;27;45445;-74
2024/03/22 09:15:21;;;;;;;;;44.25;37.75;;;;;16.11;71.90;101640.09;5077039;27;45397;-69
2024/03/22 09:17:46;;;;;;;;;38.50;35.25;;;;;16.21;71.90;101640.59;5076612;27;45635;-71
2024/03/22 09:20:12;;;;;;;;;36.25;32.25;;;;;16.20;71.58;101634.31;5077097;28;45500;-73
2024/03/22 09:22:39;;;;;;;;;45.50;38.00;;;;;16.28;71.66;101634.88;5083727;27;45284;-73
2024/03/22 09:25:04;;;;;;;;;44.50;35.75;;;;;16.30;71.46;101635.72;5080800;27;46999;-74
2024/03/22 09:27:30;;;;;;;;;41.50;35.25;;;;;16.28;71.30;101628.63;5081192;27;45398;-72
2024/03/22 09:29:55;;;;;;;;;43.50;37.00;;;;;16.39;71.65;101637.13;5081356;27;45685;-72
2024/03/22 09:32:21;;;;;;;;;44.25;35.75;;;;;16.42;71.43;101636.09;5077339;28;45440;-70
2024/03/22 09:34:48;;;;;;;;;35.75;33.00;;;;;16.47;71.40;101623.31;5080987;28;50395;-73
2024/03/22 09:37:14;;;;;;;;;39.75;34.25;;;;;16.55;71.08;101629.25;5078186;27;45774;-73
2024/03/22 09:39:39;;;;;;;;;35.50;32.50;;;;;16.55;70.83;101617.59;5081700;27;45499;-76
2024/03/22 09:42:06;;;;;;;;;33.00;31.25;;;;;16.61;70.81;101626.28;5081131;27;68872;-77
2024/03/22 09:44:32;;;;;;;;;40.25;33.50;;;;;16.66;70.69;101623.41;5081279;27;45452;-76
2024/03/22 09:46:59;;;;;;;;;38.75;32.50;;;;;16.74;70.85;101633.81;5085193;27;45498;-77
2024/03/22 09:49:25;;;;;;;;;36.00;33.00;;;;;16.76;70.98;101618.47;5083683;27;45577;-76
2024/03/22 09:51:51;;;;;;;;;30.75;29.25;;;;;16.84;70.78;101622.63;5080167;28;45527;-78
2024/03/22 09:54:17;;;;;;;;;32.25;31.25;;;;;16.89;70.12;101625.13;5081789;28;45448;-77
2024/03/22 09:56:44;;;;;;;;;31.50;29.00;;;;;16.95;70.27;101626.66;5081976;27;45774;-77
2024/03/22 09:59:12;;;;;;;;;32.25;31.25;;;;;16.99;69.87;101628.25;5080171;28;45493;-77
2024/03/22 10:01:39;;;;;;;;;37.50;33.00;;;;;17.01;70.31;101616.47;5081003;27;45332;-77
2024/03/22 10:04:05;;;;;;;;;33.00;30.00;;;;;17.06;69.25;101612.66;5076885;27;45354;-77
2024/03/22 10:06:31;;;;;;;;;33.00;32.00;;;;;17.05;69.74;101601.00;5068371;28;45441;-77
2024/03/22 10:08:59;;;;;;;;;34.50;32.00;;;;;17.12;70.05;101612.38;5078377;27;45426;-77
2024/03/22 10:11:29;;;;;;;;;39.50;33.75;;;;;17.14;69.46;101611.38;5080830;27;45334;-82
2024/03/22 10:13:55;;;;;;;;;44.50;38.00;;;;;17.14;69.08;101606.00;5080919;27;46410;-79
2024/03/22 10:16:21;;;;;;;;;36.00;32.25;;;;;17.17;68.77;101603.16;5080214;27;45632;-81
2024/03/22 10:18:48;;;;;;;;;42.50;36.00;;;;;17.13;69.39;101584.47;5065869;27;45376;-79
2024/03/22 10:21:18;;;;;;;;;41.25;36.00;;;;;17.25;69.69;101605.47;5073681;27;45388;-79
2024/03/22 10:23:44;;;;;;;;;45.50;36.25;;;;;17.25;69.76;101600.09;5078606;28;46366;-79
2024/03/22 10:26:10;;;;;;;;;41.25;35.75;;;;;17.27;69.12;101603.56;5080426;27;45475;-78
2024/03/22 10:28:35;;;;;;;;;41.75;36.50;;;;;17.28;69.04;101596.38;5078036;27;45465;-72
2024/03/22 10:31:02;;;;;;;;;43.75;35.00;;;;;17.28;69.03;101596.38;5077982;27;45533;-77
2024/03/22 10:33:28;;;;;;;;;40.25;35.50;;;;;17.29;68.94;101590.91;5078172;28;48497;-76
2024/03/22 10:35:54;;;;;;;;;37.25;32.75;;;;;17.28;68.59;101594.53;5078256;27;45445;-79
2024/03/22 10:38:21;;;;;;;;;42.50;34.00;;;;;17.35;69.04;101606.78;5068883;27;45268;-78
2024/03/22 10:40:47;;;;;;;;;38.75;34.25;;;;;17.35;68.74;101592.44;5074266;27;45546;-78
2024/03/22 10:43:16;;;;;;;;;42.00;34.00;;;;;17.36;69.05;101594.19;5074353;27;47350;-78
2024/03/22 10:45:42;;;;;;;;;32.75;30.00;;;;;17.38;69.41;101582.38;5079004;27;45380;-79
2024/03/22 10:48:11;;;;;;;;;40.00;32.75;;;;;17.41;68.81;101582.22;5083297;27;45787;-78
2024/03/22 10:50:39;;;;;;;;;33.50;32.00;;;;;17.41;69.36;101581.34;5073847;28;45452;-78
2024/03/22 10:53:08;;;;;;;;;36.25;31.75;;;;;17.46;68.87;101578.41;5079146;27;46296;-78
2024/03/22 10:55:37;;;;;;;;;36.25;31.50;;;;;17.47;68.81;101569.38;5079776;27;45374;-78
2024/03/22 10:58:03;;;;;;;;;33.25;30.50;;;;;17.44;68.56;101558.72;5080236;27;45251;-78
2024/03/22 11:00:35;;;;;;;;;38.00;33.00;;;;;17.49;68.49;101559.38;5079382;28;45330;-78
2024/03/22 11:03:04;;;;;;;;;38.00;32.50;;;;;17.50;68.29;101555.75;5078523;28;47980;-78